Latest Weather Observations for Mount Ginini

IDN60801

Issued at 11:02 pm EDT Sunday 22 January 2017 (issued every 30 minutes, with the page automatically refreshed every 10 minutes)

About weather observations | Map of weather stations | Latest weather observations for NSW | Other Formats
Station Details ID: 070349 Name: MOUNT GININI AWS Lat: -35.53 Lon: 148.77 Height: 1760.0 m
Data from the previous 72 hours. | See also: Recent months at Mount Ginini
Date/Time
EDT
Temp
°C
App
Temp
°C
Dew
Point
°C
Rel
Hum
%
Delta-T
°C
Wind Press
QNH
hPa
Press
MSL
hPa
Rain since
9am
mm
Dir  Spd
km/h
Gust
km/h
Spd
kts
Gust
kts
22/11:00pm 14.0 11.8 6.4 60 4.0 N 7 13 4 7 - - 0.0
22/10:30pm 15.0 11.6 3.8 47 5.7 NW 11 19 6 10 - - 0.0
22/10:00pm 14.7 11.5 5.2 53 4.9 NW 11 17 6 9 - - 0.0
22/09:30pm 15.0 12.1 6.6 57 4.5 WNW 11 15 6 8 - - 0.0
22/09:00pm 15.1 12.1 7.6 61 4.1 WNW 13 19 7 10 - - 0.0
22/08:30pm 15.6 13.1 8.1 61 4.1 WNW 11 17 6 9 - - 0.0
22/08:00pm 16.7 13.9 8.4 58 4.6 WNW 13 19 7 10 - - 0.0
22/07:30pm 18.3 15.9 8.8 54 5.4 WNW 11 20 6 11 - - 0.0
22/07:00pm 19.5 16.8 9.1 51 6.0 WNW 13 24 7 13 - - 0.0
22/06:30pm 20.0 17.3 9.0 49 6.3 WNW 13 26 7 14 - - 0.0
22/06:00pm 20.7 18.3 8.7 46 6.9 WNW 11 20 6 11 - - 0.0
22/05:30pm 21.2 18.5 8.8 45 7.1 WNW 13 22 7 12 - - 0.0
22/05:00pm 21.4 18.9 9.6 47 6.9 WNW 13 26 7 14 - - 0.0
22/04:30pm 22.1 20.9 10.3 47 7.0 WNW 7 20 4 11 - - 0.0
22/04:00pm 21.9 21.1 11.6 52 6.2 WNW 7 17 4 9 - - 0.0
22/03:30pm 21.7 20.3 10.8 50 6.5 NW 9 19 5 10 - - 0.0
22/03:00pm 21.9 21.1 11.0 50 6.5 WNW 6 15 3 8 - - 0.0
22/02:30pm 21.0 19.5 8.3 44 7.2 WSW 6 17 3 9 - - 0.0
22/02:00pm 21.5 21.4 12.1 55 5.7 WNW 4 11 2 6 - - 0.0
22/01:30pm 20.6 19.7 10.7 53 5.9 W 6 15 3 8 - - 0.0
22/01:00pm 19.4 18.1 9.9 54 5.5 W 7 15 4 8 - - 0.0
22/12:30pm 18.7 17.0 9.8 56 5.2 WSW 9 20 5 11 - - 0.0
22/12:00pm 18.5 16.6 10.6 60 4.6 W 11 22 6 12 - - 0.0
22/11:30am 17.4 14.7 8.8 57 4.9 W 13 22 7 12 - - 0.0
22/11:00am 16.6 14.7 9.1 61 4.2 W 9 19 5 10 - - 0.0
22/10:30am 15.9 13.4 6.6 54 5.0 W 9 19 5 10 - - 0.0
22/10:00am 14.9 12.8 8.4 65 3.6 W 9 15 5 8 - - 0.0
22/09:30am 14.0 11.4 7.8 66 3.4 WNW 11 19 6 10 - - 0.0
22/09:00am 13.3 10.7 7.7 69 3.0 WNW 11 19 6 10 - - 0.0
22/08:30am 12.1 9.3 6.8 70 2.8 WNW 11 20 6 11 - - 0.0
22/08:00am 11.2 7.7 5.5 68 2.9 WNW 13 19 7 10 - - 0.0
22/07:30am 10.3 7.4 4.9 69 2.7 WNW 9 17 5 9 - - 0.0
22/07:00am 10.3 6.5 4.0 65 3.1 W 13 19 7 10 - - 0.0
22/06:30am 9.9 6.2 2.5 60 3.5 W 11 17 6 9 - - 0.0
22/06:00am 9.4 6.1 2.7 63 3.2 WNW 9 15 5 8 - - 0.0
22/05:30am 10.2 6.5 2.6 59 3.6 W 11 19 6 10 - - 0.0
22/05:00am 8.7 5.9 7.0 89 0.9 WNW 11 17 6 9 - - 0.0
22/04:30am 6.6 4.4 6.2 97 0.2 NW 7 13 4 7 - - 0.0
22/04:00am 7.5 5.7 7.1 97 0.2 NNE 6 9 3 5 - - 0.0
22/03:30am 7.3 5.3 6.9 97 0.2 E 7 11 4 6 - - 0.0
22/03:00am 7.7 5.4 7.3 97 0.2 E 9 13 5 7 - - 0.0
22/02:30am 7.6 4.9 7.2 97 0.2 E 11 17 6 9 - - 0.0
22/02:00am 7.8 4.7 7.4 97 0.2 E 13 17 7 9 - - 0.0
22/01:30am 8.1 5.1 7.7 97 0.2 E 13 17 7 9 - - 0.0
22/01:00am 8.1 5.1 7.7 97 0.2 E 13 17 7 9 - - 0.0
22/12:30am 8.5 5.6 8.1 97 0.2 E 13 17 7 9 - - 0.0
22/12:00am 9.2 6.8 8.6 96 0.3 E 11 15 6 8 - - 0.0
 
Date/Time
EDT
Temp
°C
App
Temp
°C
Dew
Point
°C
Rel
Hum
%
Delta-T
°C
Wind Press
QNH
hPa
Press
MSL
hPa
Rain since
9am
mm
Dir  Spd
km/h
Gust
km/h
Spd
kts
Gust
kts
21/11:30pm 9.6 7.3 9.1 97 0.3 E 11 15 6 8 - - 0.0
21/11:00pm 9.0 7.0 8.6 97 0.2 ENE 9 11 5 6 - - 0.0
21/10:30pm 9.2 7.2 8.6 96 0.3 NE 9 15 5 8 - - 0.0
21/10:00pm 10.1 7.9 9.3 95 0.4 NNE 11 17 6 9 - - 0.0
21/09:30pm 11.2 9.2 10.3 94 0.5 NNE 11 19 6 10 - - 0.0
21/09:00pm 12.7 10.5 9.3 80 1.9 NNE 11 20 6 11 - - 0.0
21/08:30pm 14.1 11.9 9.3 73 2.7 NE 11 17 6 9 - - 0.0
21/08:00pm 15.9 14.9 10.4 70 3.2 NW 6 9 3 5 - - 0.0
21/07:30pm 16.7 16.3 11.0 69 3.3 N 4 11 2 6 - - 0.0
21/07:00pm 17.2 16.3 10.8 66 3.7 NNE 6 13 3 7 - - 0.0
21/06:30pm 18.9 18.0 10.7 59 4.8 NNE 6 15 3 8 - - 0.0
21/06:00pm 20.2 19.4 11.1 56 5.4 NNE 6 13 3 7 - - 0.0
21/05:30pm 20.8 20.1 11.4 55 5.6 NNW 6 17 3 9 - - 0.0
21/05:00pm 20.7 19.9 11.1 54 5.7 N 6 13 3 7 - - 0.0
21/04:30pm 20.9 20.6 11.3 54 5.8 NNW 4 15 2 8 - - 0.0
21/04:00pm 20.5 20.1 11.2 55 5.6 N 4 15 2 8 - - 0.0
21/03:30pm 21.0 20.4 11.6 55 5.7 NNW 6 13 3 7 - - 0.0
21/03:00pm 21.5 21.3 11.8 54 5.9 NW 4 11 2 6 - - 0.0
21/02:30pm 19.9 18.8 10.0 53 5.8 W 6 15 3 8 - - 0.0
21/02:00pm 19.3 18.4 10.8 58 5.0 W 6 15 3 8 - - 0.0
21/01:30pm 19.0 18.3 10.0 56 5.2 WNW 4 11 2 6 - - 0.0
21/01:00pm 18.4 17.5 10.5 60 4.6 SW 6 13 3 7 - - 0.0
21/12:30pm 17.4 15.7 7.7 53 5.4 WSW 6 17 3 9 - - 0.0
21/12:00pm 16.5 14.2 5.8 49 5.7 WSW 7 15 4 8 - - 0.0
21/11:30am 16.2 15.4 9.6 65 3.8 SW 4 11 2 6 - - 0.0
21/11:00am 15.0 13.1 6.8 58 4.4 SSW 6 11 3 6 - - 0.0
21/10:30am 13.6 12.3 9.3 75 2.4 SW 6 9 3 5 - - 0.0
21/10:00am 12.9 11.7 10.3 84 1.5 W 7 13 4 7 - - 0.0
21/09:30am 12.1 10.6 9.3 83 1.6 W 7 11 4 6 - - 0.0
21/09:00am 11.8 10.4 11.0 95 0.5 W 9 15 5 8 - - 8.2
21/08:30am 10.7 9.1 10.2 97 0.3 WNW 9 15 5 8 - - 8.2
21/08:00am 10.0 8.2 9.5 97 0.3 WNW 9 15 5 8 - - 8.2
21/07:30am 9.8 7.6 9.3 97 0.3 WNW 11 17 6 9 - - 8.2
21/07:00am 9.4 6.7 8.8 96 0.3 WNW 13 20 7 11 - - 8.2
21/06:30am 8.7 4.7 0.7 57 3.6 NW 11 15 6 8 - - 8.2
21/06:00am 9.4 5.5 -4.5 37 5.6 NW 7 11 4 6 - - 8.2
21/05:30am 9.7 5.4 -4.6 36 5.8 WNW 9 11 5 6 - - 8.2
21/05:00am 9.2 5.0 -4.0 39 5.4 W 9 17 5 9 - - 8.2
21/04:30am 7.8 3.6 -4.0 43 4.7 WSW 9 13 5 7 - - 8.2
21/04:00am 7.9 2.9 -3.9 43 4.7 SW 13 19 7 10 - - 8.2
21/03:30am 8.5 2.4 -3.7 42 5.0 SSW 19 24 10 13 - - 8.2
21/03:00am 9.3 2.9 -4.6 37 5.6 SSW 20 32 11 17 - - 8.2
21/02:30am 9.5 4.1 -4.8 36 5.7 S 15 20 8 11 - - 8.2
21/02:00am 9.1 3.1 -3.4 41 5.1 S 19 28 10 15 - - 8.2
21/01:30am 8.1 1.0 -0.9 53 3.9 S 26 41 14 22 - - 8.2
21/01:00am 9.0 2.3 -1.1 49 4.4 S 24 39 13 21 - - 8.2
21/12:30am 9.4 3.1 1.6 58 3.6 S 24 35 13 19 - - 8.2
21/12:00am 8.4 5.0 7.6 95 0.4 S 15 24 8 13 - - 8.2
 
Date/Time
EDT
Temp
°C
App
Temp
°C
Dew
Point
°C
Rel
Hum
%
Delta-T
°C
Wind Press
QNH
hPa
Press
MSL
hPa
Rain since
9am
mm
Dir  Spd
km/h
Gust
km/h
Spd
kts
Gust
kts
20/11:30pm 9.2 6.4 8.6 96 0.3 S 13 19 7 10 - - 8.2
20/11:00pm 10.3 7.4 9.8 97 0.3 SSW 15 24 8 13 - - 8.2
20/10:30pm 11.3 8.3 10.8 97 0.3 SSW 17 28 9 15 - - 8.2
20/10:00pm 11.8 9.4 11.3 97 0.3 SSW 15 22 8 12 - - 8.2
20/09:30pm 11.8 9.0 11.3 97 0.3 SSW 17 28 9 15 - - 8.2
20/09:00pm 11.7 8.8 11.1 96 0.3 SW 17 24 9 13 - - 8.2
20/08:30pm 12.1 8.9 11.3 95 0.5 SW 19 33 10 18 - - 8.2
20/08:00pm 12.3 8.9 11.4 94 0.5 SW 20 41 11 22 - - 8.2
20/07:41pm 12.8 8.0 11.7 93 0.6 SW 28 46 15 25 - - 8.2
20/07:30pm 13.2 9.1 11.4 89 1.0 SW 24 41 13 22 - - 8.2
20/07:00pm 14.4 10.4 10.6 78 2.2 SW 22 44 12 24 - - 8.2
20/06:30pm 14.7 10.6 10.1 74 2.6 SW 22 43 12 23 - - 8.2
20/06:00pm 15.6 12.0 13.1 85 1.5 WSW 24 56 13 30 - - 8.2
20/05:30pm 15.0 9.6 14.0 94 0.6 WSW 35 67 19 36 - - 8.2
20/05:00pm 15.0 10.2 14.7 98 0.2 WSW 33 65 18 35 - - 8.2
20/04:30pm 13.6 7.6 13.3 98 0.2 WSW 37 69 20 37 - - 8.2
20/04:00pm 14.8 8.5 14.5 98 0.2 WSW 41 78 22 42 - - 8.2
20/03:50pm 14.8 10.2 14.5 98 0.2 WSW 32 78 17 42 - - 8.2
20/03:30pm 15.8 12.3 15.5 98 0.2 WSW 28 69 15 37 - - 8.2
20/03:00pm 16.5 12.5 16.2 98 0.2 W 32 72 17 39 - - 8.0
20/02:30pm 16.0 11.2 15.7 98 0.2 W 35 63 19 34 - - 7.4
20/02:00pm 15.5 9.8 15.2 98 0.2 W 39 69 21 37 - - 6.6
20/01:30pm 15.2 10.1 14.9 98 0.2 W 35 70 19 38 - - 6.0
20/01:00pm 14.8 9.6 14.5 98 0.2 W 35 69 19 37 - - 5.0
20/12:30pm 14.5 9.6 14.2 98 0.2 W 33 69 18 37 - - 4.8
20/12:00pm 14.1 9.2 13.8 98 0.2 W 32 67 17 36 - - 4.4
20/11:30am 13.7 8.1 13.4 98 0.2 W 35 76 19 41 - - 4.2
20/11:00am 13.6 8.0 13.3 98 0.2 W 35 61 19 33 - - 4.0
20/10:30am 13.3 8.2 13.0 98 0.2 W 32 56 17 30 - - 3.4
20/10:00am 13.2 8.8 12.9 98 0.2 W 28 56 15 30 - - 2.0
20/09:30am 13.2 8.4 12.9 98 0.2 WNW 30 61 16 33 - - 0.4
20/09:00am 13.4 7.3 13.1 98 0.2 NW 37 70 20 38 - - 4.0
20/08:30am 13.1 6.9 12.8 98 0.2 NW 37 70 20 38 - - 2.6
20/08:16am 13.0 6.1 12.7 98 0.2 NW 41 80 22 43 - - 2.6
20/08:00am 12.6 7.1 12.3 98 0.2 NNW 33 59 18 32 - - 2.2
20/07:30am 12.6 7.1 12.0 96 0.4 NW 32 59 17 32 - - 1.8
20/07:00am 14.1 8.8 13.1 94 0.6 NNW 33 56 18 30 - - 0.0
20/06:30am 13.7 9.3 12.8 94 0.5 NNW 28 52 15 28 - - 0.0
20/06:13am 13.0 8.3 12.1 94 0.5 NW 28 46 15 25 - - 0.0
20/06:00am 12.7 8.7 11.8 94 0.5 NW 24 43 13 23 - - 0.0
20/05:32am 14.9 9.7 10.1 73 2.7 NNW 28 50 15 27 - - 0.0
20/05:30am 15.0 10.1 10.0 72 2.9 NNW 26 50 14 27 - - 0.0
20/05:00am 14.6 10.5 10.2 75 2.5 NNW 22 43 12 23 - - 0.0
20/04:30am 14.3 10.7 12.0 86 1.4 NNW 22 44 12 24 - - 0.0
20/04:00am 14.0 10.8 11.9 87 1.2 NNW 20 37 11 20 - - 0.0
20/03:30am 14.7 10.8 9.3 70 3.0 NNW 20 37 11 20 - - 0.0
20/03:00am 14.3 10.6 9.3 72 2.8 NNW 19 35 10 19 - - 0.0
20/02:30am 13.7 10.0 9.6 76 2.3 NNW 19 33 10 18 - - 0.0
20/02:00am 12.9 9.8 10.4 85 1.4 NNW 17 30 9 16 - - 0.0
20/01:30am 11.6 9.0 10.7 94 0.5 NNW 15 28 8 15 - - 0.0
20/01:00am 11.6 9.3 10.3 92 0.7 N 13 24 7 13 - - 0.0
20/12:30am 12.5 10.3 10.7 89 1.0 NNW 13 24 7 13 - - 0.0
20/12:00am 12.7 11.0 11.1 90 0.9 NNW 11 20 6 11 - - 0.0
 
Date/Time
EDT
Temp
°C
App
Temp
°C
Dew
Point
°C
Rel
Hum
%
Delta-T
°C
Wind Press
QNH
hPa
Press
MSL
hPa
Rain since
9am
mm
Dir  Spd
km/h
Gust
km/h
Spd
kts
Gust
kts
19/11:30pm 12.6 10.7 11.7 94 0.5 NNW 13 24 7 13 - - 0.0

Other Formats:

Comma delimited format used in spreadsheet applications
http://www.bom.gov.au/fwo/IDN60801/IDN60801.95925.axf

JavaScript Object Notation format (JSON) in row-major order
http://www.bom.gov.au/fwo/IDN60801/IDN60801.95925.json